sensor_id;sensor_type;location;lat;lon;timestamp;P1;durP1;ratioP1;P2;durP2;ratioP2
5587;SDS011;2816;49.778;9.986;2023-03-04T00:01:32;15.47;;;8.47;;
5587;SDS011;2816;49.778;9.986;2023-03-04T00:03:58;21.10;;;10.50;;
5587;SDS011;2816;49.778;9.986;2023-03-04T00:06:25;19.07;;;9.70;;
5587;SDS011;2816;49.778;9.986;2023-03-04T00:08:52;18.43;;;8.23;;
5587;SDS011;2816;49.778;9.986;2023-03-04T00:11:19;17.23;;;10.00;;
5587;SDS011;2816;49.778;9.986;2023-03-04T00:13:46;18.63;;;9.50;;
5587;SDS011;2816;49.778;9.986;2023-03-04T00:16:13;17.90;;;8.90;;
5587;SDS011;2816;49.778;9.986;2023-03-04T00:18:42;15.50;;;8.23;;
5587;SDS011;2816;49.778;9.986;2023-03-04T00:21:08;18.13;;;8.50;;
5587;SDS011;2816;49.778;9.986;2023-03-04T00:23:35;13.33;;;8.33;;
5587;SDS011;2816;49.778;9.986;2023-03-04T00:26:02;20.33;;;8.70;;
5587;SDS011;2816;49.778;9.986;2023-03-04T00:28:29;19.20;;;9.13;;
5587;SDS011;2816;49.778;9.986;2023-03-04T00:30:56;15.80;;;8.43;;
5587;SDS011;2816;49.778;9.986;2023-03-04T00:33:23;21.00;;;10.17;;
5587;SDS011;2816;49.778;9.986;2023-03-04T00:35:52;21.13;;;7.70;;
5587;SDS011;2816;49.778;9.986;2023-03-04T00:38:19;14.63;;;8.60;;
5587;SDS011;2816;49.778;9.986;2023-03-04T00:40:46;14.43;;;8.40;;
5587;SDS011;2816;49.778;9.986;2023-03-04T00:43:13;20.30;;;9.37;;
5587;SDS011;2816;49.778;9.986;2023-03-04T00:45:40;16.40;;;8.10;;
5587;SDS011;2816;49.778;9.986;2023-03-04T00:48:07;17.50;;;8.63;;
5587;SDS011;2816;49.778;9.986;2023-03-04T00:50:35;13.97;;;7.90;;
5587;SDS011;2816;49.778;9.986;2023-03-04T00:53:04;15.07;;;7.83;;
5587;SDS011;2816;49.778;9.986;2023-03-04T00:55:31;13.73;;;8.07;;
5587;SDS011;2816;49.778;9.986;2023-03-04T00:57:58;16.23;;;8.17;;
5587;SDS011;2816;49.778;9.986;2023-03-04T01:00:25;15.00;;;8.40;;
5587;SDS011;2816;49.778;9.986;2023-03-04T01:02:52;12.97;;;7.60;;
5587;SDS011;2816;49.778;9.986;2023-03-04T01:05:19;13.30;;;7.20;;
5587;SDS011;2816;49.778;9.986;2023-03-04T01:07:46;13.00;;;6.90;;
5587;SDS011;2816;49.778;9.986;2023-03-04T01:10:14;19.40;;;8.13;;
5587;SDS011;2816;49.778;9.986;2023-03-04T01:12:41;10.80;;;6.80;;
5587;SDS011;2816;49.778;9.986;2023-03-04T01:15:09;17.10;;;8.13;;
5587;SDS011;2816;49.778;9.986;2023-03-04T01:17:37;15.23;;;8.40;;
5587;SDS011;2816;49.778;9.986;2023-03-04T01:20:05;17.00;;;7.80;;
5587;SDS011;2816;49.778;9.986;2023-03-04T01:22:32;13.90;;;7.80;;
5587;SDS011;2816;49.778;9.986;2023-03-04T01:24:59;15.73;;;7.77;;
5587;SDS011;2816;49.778;9.986;2023-03-04T01:27:28;16.27;;;8.13;;
5587;SDS011;2816;49.778;9.986;2023-03-04T01:29:55;14.07;;;8.03;;
5587;SDS011;2816;49.778;9.986;2023-03-04T01:32:22;14.30;;;7.70;;
5587;SDS011;2816;49.778;9.986;2023-03-04T01:34:48;16.07;;;8.17;;
5587;SDS011;2816;49.778;9.986;2023-03-04T01:37:15;14.93;;;7.53;;
5587;SDS011;2816;49.778;9.986;2023-03-04T01:39:42;14.83;;;7.90;;
5587;SDS011;2816;49.778;9.986;2023-03-04T01:42:11;17.17;;;8.40;;
5587;SDS011;2816;49.778;9.986;2023-03-04T01:44:44;13.83;;;8.10;;
5587;SDS011;2816;49.778;9.986;2023-03-04T01:47:12;17.00;;;9.67;;
5587;SDS011;2816;49.778;9.986;2023-03-04T01:49:40;16.83;;;10.53;;
5587;SDS011;2816;49.778;9.986;2023-03-04T01:52:09;15.23;;;8.60;;
5587;SDS011;2816;49.778;9.986;2023-03-04T01:54:38;16.07;;;8.03;;
5587;SDS011;2816;49.778;9.986;2023-03-04T01:57:14;17.73;;;8.40;;
5587;SDS011;2816;49.778;9.986;2023-03-04T01:59:43;19.80;;;8.50;;
5587;SDS011;2816;49.778;9.986;2023-03-04T02:02:12;16.60;;;9.80;;
5587;SDS011;2816;49.778;9.986;2023-03-04T02:04:39;14.97;;;8.90;;
5587;SDS011;2816;49.778;9.986;2023-03-04T02:07:07;15.53;;;8.30;;
5587;SDS011;2816;49.778;9.986;2023-03-04T02:09:34;19.33;;;9.43;;
5587;SDS011;2816;49.778;9.986;2023-03-04T02:12:02;17.60;;;8.67;;
5587;SDS011;2816;49.778;9.986;2023-03-04T02:14:29;20.47;;;10.13;;
5587;SDS011;2816;49.778;9.986;2023-03-04T02:16:57;16.97;;;9.13;;
5587;SDS011;2816;49.778;9.986;2023-03-04T02:19:30;17.03;;;9.70;;
5587;SDS011;2816;49.778;9.986;2023-03-04T02:22:06;17.70;;;10.17;;
5587;SDS011;2816;49.778;9.986;2023-03-04T02:24:35;18.67;;;9.97;;
5587;SDS011;2816;49.778;9.986;2023-03-04T02:27:07;18.93;;;10.27;;
5587;SDS011;2816;49.778;9.986;2023-03-04T02:29:34;22.10;;;11.27;;
5587;SDS011;2816;49.778;9.986;2023-03-04T02:32:01;21.60;;;10.50;;
5587;SDS011;2816;49.778;9.986;2023-03-04T02:34:30;23.53;;;11.77;;
5587;SDS011;2816;49.778;9.986;2023-03-04T02:36:59;23.03;;;12.20;;
5587;SDS011;2816;49.778;9.986;2023-03-04T02:39:30;20.87;;;10.30;;
5587;SDS011;2816;49.778;9.986;2023-03-04T02:41:59;21.40;;;10.67;;
5587;SDS011;2816;49.778;9.986;2023-03-04T02:44:29;22.13;;;10.47;;
5587;SDS011;2816;49.778;9.986;2023-03-04T02:46:59;19.90;;;11.00;;
5587;SDS011;2816;49.778;9.986;2023-03-04T02:49:27;19.73;;;10.93;;
5587;SDS011;2816;49.778;9.986;2023-03-04T02:51:59;21.73;;;10.60;;
5587;SDS011;2816;49.778;9.986;2023-03-04T02:54:28;22.03;;;11.40;;
5587;SDS011;2816;49.778;9.986;2023-03-04T02:56:56;16.13;;;9.40;;
5587;SDS011;2816;49.778;9.986;2023-03-04T02:59:24;19.83;;;11.50;;
5587;SDS011;2816;49.778;9.986;2023-03-04T03:01:52;22.73;;;11.80;;
5587;SDS011;2816;49.778;9.986;2023-03-04T03:04:20;19.50;;;10.07;;
5587;SDS011;2816;49.778;9.986;2023-03-04T03:06:48;18.50;;;11.10;;
5587;SDS011;2816;49.778;9.986;2023-03-04T03:09:15;17.37;;;9.33;;
5587;SDS011;2816;49.778;9.986;2023-03-04T03:11:43;22.90;;;9.93;;
5587;SDS011;2816;49.778;9.986;2023-03-04T03:14:10;19.40;;;11.47;;
5587;SDS011;2816;49.778;9.986;2023-03-04T03:16:37;17.87;;;10.03;;
5587;SDS011;2816;49.778;9.986;2023-03-04T03:19:05;17.20;;;10.27;;
5587;SDS011;2816;49.778;9.986;2023-03-04T03:21:32;21.83;;;11.33;;
5587;SDS011;2816;49.778;9.986;2023-03-04T03:23:59;21.00;;;11.43;;
5587;SDS011;2816;49.778;9.986;2023-03-04T03:26:26;20.70;;;11.73;;
5587;SDS011;2816;49.778;9.986;2023-03-04T03:28:53;18.67;;;11.50;;
5587;SDS011;2816;49.778;9.986;2023-03-04T03:31:20;20.97;;;11.40;;
5587;SDS011;2816;49.778;9.986;2023-03-04T03:33:47;20.67;;;12.70;;
5587;SDS011;2816;49.778;9.986;2023-03-04T03:36:15;22.40;;;11.37;;
5587;SDS011;2816;49.778;9.986;2023-03-04T03:38:42;19.50;;;11.70;;
5587;SDS011;2816;49.778;9.986;2023-03-04T03:41:09;25.03;;;12.50;;
5587;SDS011;2816;49.778;9.986;2023-03-04T03:43:36;25.30;;;13.77;;
5587;SDS011;2816;49.778;9.986;2023-03-04T03:46:03;22.50;;;12.30;;
5587;SDS011;2816;49.778;9.986;2023-03-04T03:48:30;23.70;;;11.83;;
5587;SDS011;2816;49.778;9.986;2023-03-04T03:50:57;19.70;;;11.30;;
5587;SDS011;2816;49.778;9.986;2023-03-04T03:53:25;21.50;;;12.07;;
5587;SDS011;2816;49.778;9.986;2023-03-04T03:55:52;26.70;;;13.03;;
5587;SDS011;2816;49.778;9.986;2023-03-04T03:58:20;20.83;;;11.20;;
5587;SDS011;2816;49.778;9.986;2023-03-04T04:00:47;20.00;;;12.83;;
5587;SDS011;2816;49.778;9.986;2023-03-04T04:03:14;21.73;;;10.90;;
5587;SDS011;2816;49.778;9.986;2023-03-04T04:05:41;20.93;;;12.10;;
5587;SDS011;2816;49.778;9.986;2023-03-04T04:08:10;20.23;;;10.90;;
5587;SDS011;2816;49.778;9.986;2023-03-04T04:10:39;21.33;;;11.90;;
5587;SDS011;2816;49.778;9.986;2023-03-04T04:13:07;21.10;;;11.07;;
5587;SDS011;2816;49.778;9.986;2023-03-04T04:15:35;23.63;;;13.30;;
5587;SDS011;2816;49.778;9.986;2023-03-04T04:18:02;22.20;;;11.50;;
5587;SDS011;2816;49.778;9.986;2023-03-04T04:20:29;20.10;;;11.90;;
5587;SDS011;2816;49.778;9.986;2023-03-04T04:22:57;23.70;;;12.83;;
5587;SDS011;2816;49.778;9.986;2023-03-04T04:25:24;21.57;;;11.63;;
5587;SDS011;2816;49.778;9.986;2023-03-04T04:27:52;21.90;;;12.03;;
5587;SDS011;2816;49.778;9.986;2023-03-04T04:30:19;19.03;;;11.50;;
5587;SDS011;2816;49.778;9.986;2023-03-04T04:32:46;20.23;;;11.63;;
5587;SDS011;2816;49.778;9.986;2023-03-04T04:35:13;22.23;;;12.00;;
5587;SDS011;2816;49.778;9.986;2023-03-04T04:37:40;19.67;;;10.90;;
5587;SDS011;2816;49.778;9.986;2023-03-04T04:40:07;21.70;;;10.97;;
5587;SDS011;2816;49.778;9.986;2023-03-04T04:42:35;21.50;;;10.83;;
5587;SDS011;2816;49.778;9.986;2023-03-04T04:45:04;20.77;;;11.80;;
5587;SDS011;2816;49.778;9.986;2023-03-04T04:47:32;27.90;;;13.20;;
5587;SDS011;2816;49.778;9.986;2023-03-04T04:49:59;23.20;;;12.03;;
5587;SDS011;2816;49.778;9.986;2023-03-04T04:52:25;18.40;;;11.30;;
5587;SDS011;2816;49.778;9.986;2023-03-04T04:54:52;21.87;;;11.37;;
5587;SDS011;2816;49.778;9.986;2023-03-04T04:57:19;16.77;;;10.07;;
5587;SDS011;2816;49.778;9.986;2023-03-04T04:59:46;18.33;;;11.00;;
5587;SDS011;2816;49.778;9.986;2023-03-04T05:02:15;20.93;;;11.67;;
5587;SDS011;2816;49.778;9.986;2023-03-04T05:04:42;19.50;;;12.10;;
5587;SDS011;2816;49.778;9.986;2023-03-04T05:07:09;22.27;;;11.90;;
5587;SDS011;2816;49.778;9.986;2023-03-04T05:09:36;18.77;;;10.70;;
5587;SDS011;2816;49.778;9.986;2023-03-04T05:12:03;22.00;;;11.63;;
5587;SDS011;2816;49.778;9.986;2023-03-04T05:14:30;20.53;;;11.33;;
5587;SDS011;2816;49.778;9.986;2023-03-04T05:16:57;19.27;;;11.27;;
5587;SDS011;2816;49.778;9.986;2023-03-04T05:19:25;22.43;;;12.00;;
5587;SDS011;2816;49.778;9.986;2023-03-04T05:21:52;21.70;;;11.27;;
5587;SDS011;2816;49.778;9.986;2023-03-04T05:24:19;19.13;;;11.47;;
5587;SDS011;2816;49.778;9.986;2023-03-04T05:26:46;19.47;;;11.60;;
5587;SDS011;2816;49.778;9.986;2023-03-04T05:29:13;19.83;;;11.33;;
5587;SDS011;2816;49.778;9.986;2023-03-04T05:31:40;19.53;;;11.47;;
5587;SDS011;2816;49.778;9.986;2023-03-04T05:34:07;21.10;;;11.80;;
5587;SDS011;2816;49.778;9.986;2023-03-04T05:36:35;29.40;;;11.97;;
5587;SDS011;2816;49.778;9.986;2023-03-04T05:39:03;19.70;;;11.77;;
5587;SDS011;2816;49.778;9.986;2023-03-04T05:41:30;30.47;;;11.87;;
5587;SDS011;2816;49.778;9.986;2023-03-04T05:43:57;19.90;;;12.07;;
5587;SDS011;2816;49.778;9.986;2023-03-04T05:46:24;24.13;;;13.97;;
5587;SDS011;2816;49.778;9.986;2023-03-04T05:48:51;18.63;;;11.50;;
5587;SDS011;2816;49.778;9.986;2023-03-04T05:51:18;22.73;;;13.07;;
5587;SDS011;2816;49.778;9.986;2023-03-04T05:53:47;28.80;;;11.67;;
5587;SDS011;2816;49.778;9.986;2023-03-04T05:56:15;22.67;;;11.47;;
5587;SDS011;2816;49.778;9.986;2023-03-04T05:58:43;19.83;;;11.20;;
5587;SDS011;2816;49.778;9.986;2023-03-04T06:01:11;20.97;;;10.97;;
5587;SDS011;2816;49.778;9.986;2023-03-04T06:03:39;18.03;;;11.47;;
5587;SDS011;2816;49.778;9.986;2023-03-04T06:06:07;19.00;;;11.40;;
5587;SDS011;2816;49.778;9.986;2023-03-04T06:08:34;15.53;;;10.37;;
5587;SDS011;2816;49.778;9.986;2023-03-04T06:11:02;18.30;;;11.93;;
5587;SDS011;2816;49.778;9.986;2023-03-04T06:13:30;23.70;;;11.50;;
5587;SDS011;2816;49.778;9.986;2023-03-04T06:15:57;20.00;;;11.50;;
5587;SDS011;2816;49.778;9.986;2023-03-04T06:18:25;20.87;;;11.30;;
5587;SDS011;2816;49.778;9.986;2023-03-04T06:20:54;21.23;;;11.23;;
5587;SDS011;2816;49.778;9.986;2023-03-04T06:23:22;19.53;;;11.07;;
5587;SDS011;2816;49.778;9.986;2023-03-04T06:25:50;17.37;;;11.37;;
5587;SDS011;2816;49.778;9.986;2023-03-04T06:28:19;21.90;;;12.00;;
5587;SDS011;2816;49.778;9.986;2023-03-04T06:30:46;19.50;;;10.90;;
5587;SDS011;2816;49.778;9.986;2023-03-04T06:33:13;22.37;;;11.70;;
5587;SDS011;2816;49.778;9.986;2023-03-04T06:35:39;22.33;;;11.30;;
5587;SDS011;2816;49.778;9.986;2023-03-04T06:38:07;18.20;;;10.67;;
5587;SDS011;2816;49.778;9.986;2023-03-04T06:40:33;17.50;;;10.33;;
5587;SDS011;2816;49.778;9.986;2023-03-04T06:43:01;21.10;;;11.43;;
5587;SDS011;2816;49.778;9.986;2023-03-04T06:45:29;19.60;;;11.20;;
5587;SDS011;2816;49.778;9.986;2023-03-04T06:47:56;20.03;;;11.57;;
5587;SDS011;2816;49.778;9.986;2023-03-04T06:50:23;22.30;;;12.00;;
5587;SDS011;2816;49.778;9.986;2023-03-04T06:52:50;16.70;;;10.17;;
5587;SDS011;2816;49.778;9.986;2023-03-04T06:55:17;16.80;;;10.33;;
5587;SDS011;2816;49.778;9.986;2023-03-04T06:57:45;15.17;;;10.20;;
5587;SDS011;2816;49.778;9.986;2023-03-04T07:00:12;21.60;;;11.53;;
5587;SDS011;2816;49.778;9.986;2023-03-04T07:02:41;21.43;;;10.30;;
5587;SDS011;2816;49.778;9.986;2023-03-04T07:05:08;19.63;;;11.40;;
5587;SDS011;2816;49.778;9.986;2023-03-04T07:07:36;21.93;;;10.30;;
5587;SDS011;2816;49.778;9.986;2023-03-04T07:10:03;22.37;;;11.00;;
5587;SDS011;2816;49.778;9.986;2023-03-04T07:12:31;18.43;;;10.60;;
5587;SDS011;2816;49.778;9.986;2023-03-04T07:14:58;21.00;;;10.93;;
5587;SDS011;2816;49.778;9.986;2023-03-04T07:17:25;17.23;;;10.93;;
5587;SDS011;2816;49.778;9.986;2023-03-04T07:19:53;18.70;;;11.27;;
5587;SDS011;2816;49.778;9.986;2023-03-04T07:22:20;19.00;;;11.67;;
5587;SDS011;2816;49.778;9.986;2023-03-04T07:24:47;18.77;;;9.97;;
5587;SDS011;2816;49.778;9.986;2023-03-04T07:27:14;17.43;;;10.87;;
5587;SDS011;2816;49.778;9.986;2023-03-04T07:29:41;21.30;;;10.87;;
5587;SDS011;2816;49.778;9.986;2023-03-04T07:32:08;17.77;;;9.23;;
5587;SDS011;2816;49.778;9.986;2023-03-04T07:34:37;19.17;;;9.17;;
5587;SDS011;2816;49.778;9.986;2023-03-04T07:37:05;15.43;;;10.23;;
5587;SDS011;2816;49.778;9.986;2023-03-04T07:39:32;16.20;;;10.00;;
5587;SDS011;2816;49.778;9.986;2023-03-04T07:41:59;22.83;;;11.00;;
5587;SDS011;2816;49.778;9.986;2023-03-04T07:44:26;16.30;;;8.77;;
5587;SDS011;2816;49.778;9.986;2023-03-04T07:46:53;16.73;;;10.00;;
5587;SDS011;2816;49.778;9.986;2023-03-04T07:49:20;15.70;;;9.80;;
5587;SDS011;2816;49.778;9.986;2023-03-04T07:51:47;19.10;;;9.47;;
5587;SDS011;2816;49.778;9.986;2023-03-04T07:54:15;19.10;;;11.30;;
5587;SDS011;2816;49.778;9.986;2023-03-04T07:56:44;17.17;;;11.30;;
5587;SDS011;2816;49.778;9.986;2023-03-04T07:59:11;20.70;;;11.73;;
5587;SDS011;2816;49.778;9.986;2023-03-04T08:01:38;17.23;;;10.60;;
5587;SDS011;2816;49.778;9.986;2023-03-04T08:04:05;17.30;;;10.13;;
5587;SDS011;2816;49.778;9.986;2023-03-04T08:06:33;16.77;;;10.63;;
5587;SDS011;2816;49.778;9.986;2023-03-04T08:09:00;16.87;;;10.63;;
5587;SDS011;2816;49.778;9.986;2023-03-04T08:11:31;19.00;;;11.10;;
5587;SDS011;2816;49.778;9.986;2023-03-04T08:13:59;14.30;;;10.13;;
5587;SDS011;2816;49.778;9.986;2023-03-04T08:16:26;19.43;;;10.57;;
5587;SDS011;2816;49.778;9.986;2023-03-04T08:18:54;16.80;;;10.27;;
5587;SDS011;2816;49.778;9.986;2023-03-04T08:21:23;19.83;;;9.90;;
5587;SDS011;2816;49.778;9.986;2023-03-04T08:23:51;18.57;;;10.50;;
5587;SDS011;2816;49.778;9.986;2023-03-04T08:26:19;17.30;;;9.90;;
5587;SDS011;2816;49.778;9.986;2023-03-04T08:28:49;20.40;;;10.07;;
5587;SDS011;2816;49.778;9.986;2023-03-04T08:31:17;13.40;;;9.10;;
5587;SDS011;2816;49.778;9.986;2023-03-04T08:33:44;16.13;;;10.93;;
5587;SDS011;2816;49.778;9.986;2023-03-04T08:36:12;19.40;;;9.60;;
5587;SDS011;2816;49.778;9.986;2023-03-04T08:38:40;20.80;;;9.40;;
5587;SDS011;2816;49.778;9.986;2023-03-04T08:41:07;14.50;;;9.77;;
5587;SDS011;2816;49.778;9.986;2023-03-04T08:43:34;19.97;;;10.63;;
5587;SDS011;2816;49.778;9.986;2023-03-04T08:46:03;17.40;;;10.40;;
5587;SDS011;2816;49.778;9.986;2023-03-04T08:48:30;23.30;;;12.47;;
5587;SDS011;2816;49.778;9.986;2023-03-04T08:50:57;15.43;;;9.10;;
5587;SDS011;2816;49.778;9.986;2023-03-04T08:53:24;26.63;;;10.40;;
5587;SDS011;2816;49.778;9.986;2023-03-04T08:55:51;18.40;;;10.00;;
5587;SDS011;2816;49.778;9.986;2023-03-04T08:58:18;14.43;;;9.43;;
5587;SDS011;2816;49.778;9.986;2023-03-04T09:00:46;18.50;;;9.47;;
5587;SDS011;2816;49.778;9.986;2023-03-04T09:03:17;20.13;;;10.70;;
5587;SDS011;2816;49.778;9.986;2023-03-04T09:05:44;18.30;;;10.60;;
5587;SDS011;2816;49.778;9.986;2023-03-04T09:08:12;12.97;;;9.90;;
5587;SDS011;2816;49.778;9.986;2023-03-04T09:10:39;25.53;;;10.47;;
5587;SDS011;2816;49.778;9.986;2023-03-04T09:13:06;18.63;;;10.93;;
5587;SDS011;2816;49.778;9.986;2023-03-04T09:15:35;15.13;;;9.40;;
5587;SDS011;2816;49.778;9.986;2023-03-04T09:18:03;13.30;;;9.20;;
5587;SDS011;2816;49.778;9.986;2023-03-04T09:20:32;13.57;;;9.30;;
5587;SDS011;2816;49.778;9.986;2023-03-04T09:22:59;16.57;;;8.80;;
5587;SDS011;2816;49.778;9.986;2023-03-04T09:25:26;17.13;;;9.33;;
5587;SDS011;2816;49.778;9.986;2023-03-04T09:27:53;26.67;;;10.03;;
5587;SDS011;2816;49.778;9.986;2023-03-04T09:30:20;15.83;;;9.50;;
5587;SDS011;2816;49.778;9.986;2023-03-04T09:32:47;14.13;;;9.57;;
5587;SDS011;2816;49.778;9.986;2023-03-04T09:35:14;13.07;;;8.87;;
5587;SDS011;2816;49.778;9.986;2023-03-04T09:37:43;16.47;;;8.50;;
5587;SDS011;2816;49.778;9.986;2023-03-04T09:40:14;17.57;;;9.50;;
5587;SDS011;2816;49.778;9.986;2023-03-04T09:42:45;12.50;;;9.23;;
5587;SDS011;2816;49.778;9.986;2023-03-04T09:45:15;16.63;;;8.90;;
5587;SDS011;2816;49.778;9.986;2023-03-04T09:47:44;19.50;;;9.50;;
5587;SDS011;2816;49.778;9.986;2023-03-04T09:50:13;13.80;;;8.67;;
5587;SDS011;2816;49.778;9.986;2023-03-04T09:52:47;14.70;;;9.03;;
5587;SDS011;2816;49.778;9.986;2023-03-04T09:55:24;28.40;;;10.20;;
5587;SDS011;2816;49.778;9.986;2023-03-04T09:57:56;11.80;;;8.77;;
5587;SDS011;2816;49.778;9.986;2023-03-04T10:00:30;15.80;;;9.13;;
5587;SDS011;2816;49.778;9.986;2023-03-04T10:03:11;14.73;;;8.67;;
5587;SDS011;2816;49.778;9.986;2023-03-04T10:05:43;12.83;;;8.00;;
5587;SDS011;2816;49.778;9.986;2023-03-04T10:08:23;12.90;;;8.00;;
5587;SDS011;2816;49.778;9.986;2023-03-04T10:10:58;17.13;;;8.77;;
5587;SDS011;2816;49.778;9.986;2023-03-04T10:13:28;17.47;;;8.03;;
5587;SDS011;2816;49.778;9.986;2023-03-04T10:16:01;19.30;;;7.93;;
5587;SDS011;2816;49.778;9.986;2023-03-04T10:18:31;29.20;;;8.40;;
5587;SDS011;2816;49.778;9.986;2023-03-04T10:21:02;11.77;;;7.30;;
5587;SDS011;2816;49.778;9.986;2023-03-04T10:23:34;16.37;;;9.00;;
5587;SDS011;2816;49.778;9.986;2023-03-04T10:26:08;16.63;;;8.00;;
5587;SDS011;2816;49.778;9.986;2023-03-04T10:28:38;19.40;;;9.07;;
5587;SDS011;2816;49.778;9.986;2023-03-04T10:31:08;13.60;;;8.10;;
5587;SDS011;2816;49.778;9.986;2023-03-04T10:33:40;22.40;;;8.53;;
5587;SDS011;2816;49.778;9.986;2023-03-04T10:36:13;12.23;;;7.53;;
5587;SDS011;2816;49.778;9.986;2023-03-04T10:39:04;12.80;;;8.13;;
5587;SDS011;2816;49.778;9.986;2023-03-04T10:41:34;15.33;;;8.73;;
5587;SDS011;2816;49.778;9.986;2023-03-04T10:44:03;13.37;;;7.77;;
5587;SDS011;2816;49.778;9.986;2023-03-04T10:46:40;20.00;;;8.93;;
5587;SDS011;2816;49.778;9.986;2023-03-04T10:49:08;17.00;;;8.97;;
5587;SDS011;2816;49.778;9.986;2023-03-04T10:51:40;14.03;;;8.07;;
5587;SDS011;2816;49.778;9.986;2023-03-04T10:54:15;13.23;;;8.10;;
5587;SDS011;2816;49.778;9.986;2023-03-04T10:56:53;20.63;;;9.00;;
5587;SDS011;2816;49.778;9.986;2023-03-04T10:59:24;18.13;;;8.20;;
5587;SDS011;2816;49.778;9.986;2023-03-04T11:02:13;16.00;;;8.13;;
5587;SDS011;2816;49.778;9.986;2023-03-04T11:04:43;19.10;;;8.40;;
5587;SDS011;2816;49.778;9.986;2023-03-04T11:07:17;16.00;;;7.90;;
5587;SDS011;2816;49.778;9.986;2023-03-04T11:09:46;15.27;;;7.57;;
5587;SDS011;2816;49.778;9.986;2023-03-04T11:12:14;14.63;;;7.53;;
5587;SDS011;2816;49.778;9.986;2023-03-04T11:14:44;20.17;;;7.87;;
5587;SDS011;2816;49.778;9.986;2023-03-04T11:17:17;18.40;;;7.83;;
5587;SDS011;2816;49.778;9.986;2023-03-04T11:19:47;18.17;;;8.30;;
5587;SDS011;2816;49.778;9.986;2023-03-04T11:22:19;19.63;;;8.10;;
5587;SDS011;2816;49.778;9.986;2023-03-04T11:24:51;20.93;;;7.73;;
5587;SDS011;2816;49.778;9.986;2023-03-04T11:27:23;16.00;;;8.07;;
5587;SDS011;2816;49.778;9.986;2023-03-04T11:29:57;19.83;;;7.70;;
5587;SDS011;2816;49.778;9.986;2023-03-04T11:32:36;25.13;;;7.80;;
5587;SDS011;2816;49.778;9.986;2023-03-04T11:35:12;15.73;;;8.67;;
5587;SDS011;2816;49.778;9.986;2023-03-04T11:37:46;11.53;;;6.47;;
5587;SDS011;2816;49.778;9.986;2023-03-04T11:40:22;21.77;;;8.63;;
5587;SDS011;2816;49.778;9.986;2023-03-04T11:42:54;22.57;;;7.93;;
5587;SDS011;2816;49.778;9.986;2023-03-04T11:45:27;17.90;;;8.00;;
5587;SDS011;2816;49.778;9.986;2023-03-04T11:48:00;16.40;;;6.30;;
5587;SDS011;2816;49.778;9.986;2023-03-04T11:50:35;26.57;;;7.00;;
5587;SDS011;2816;49.778;9.986;2023-03-04T11:53:13;16.57;;;6.77;;
5587;SDS011;2816;49.778;9.986;2023-03-04T11:55:55;20.40;;;7.03;;
5587;SDS011;2816;49.778;9.986;2023-03-04T12:01:41;16.93;;;7.77;;
5587;SDS011;2816;49.778;9.986;2023-03-04T12:07:13;30.40;;;6.70;;
5587;SDS011;2816;49.778;9.986;2023-03-04T12:09:56;17.47;;;7.30;;
5587;SDS011;2816;49.778;9.986;2023-03-04T12:12:40;17.40;;;7.10;;
5587;SDS011;2816;49.778;9.986;2023-03-04T12:15:24;17.87;;;6.80;;
5587;SDS011;2816;49.778;9.986;2023-03-04T12:20:55;15.70;;;6.60;;
5587;SDS011;2816;49.778;9.986;2023-03-04T12:23:45;17.10;;;6.03;;
5587;SDS011;2816;49.778;9.986;2023-03-04T12:26:34;16.07;;;6.20;;
5587;SDS011;2816;49.778;9.986;2023-03-04T12:29:09;12.80;;;5.67;;
5587;SDS011;2816;49.778;9.986;2023-03-04T12:31:40;14.33;;;5.97;;
5587;SDS011;2816;49.778;9.986;2023-03-04T12:34:18;22.23;;;6.10;;
5587;SDS011;2816;49.778;9.986;2023-03-04T12:37:03;9.67;;;5.80;;
5587;SDS011;2816;49.778;9.986;2023-03-04T12:39:45;31.87;;;8.27;;
5587;SDS011;2816;49.778;9.986;2023-03-04T12:42:26;19.33;;;7.30;;
5587;SDS011;2816;49.778;9.986;2023-03-04T12:45:02;15.53;;;6.60;;
5587;SDS011;2816;49.778;9.986;2023-03-04T12:47:43;16.13;;;5.47;;
5587;SDS011;2816;49.778;9.986;2023-03-04T12:50:25;19.57;;;6.20;;
5587;SDS011;2816;49.778;9.986;2023-03-04T12:53:04;19.63;;;7.53;;
5587;SDS011;2816;49.778;9.986;2023-03-04T12:55:38;12.33;;;5.30;;
5587;SDS011;2816;49.778;9.986;2023-03-04T12:58:11;15.33;;;5.13;;
5587;SDS011;2816;49.778;9.986;2023-03-04T13:00:45;23.37;;;6.17;;
5587;SDS011;2816;49.778;9.986;2023-03-04T13:03:20;11.73;;;5.60;;
5587;SDS011;2816;49.778;9.986;2023-03-04T13:05:55;16.63;;;5.87;;
5587;SDS011;2816;49.778;9.986;2023-03-04T13:08:32;10.83;;;5.40;;
5587;SDS011;2816;49.778;9.986;2023-03-04T13:11:31;15.53;;;5.33;;
5587;SDS011;2816;49.778;9.986;2023-03-04T13:14:27;15.30;;;5.60;;
5587;SDS011;2816;49.778;9.986;2023-03-04T13:20:12;11.53;;;5.60;;
5587;SDS011;2816;49.778;9.986;2023-03-04T13:22:46;17.47;;;5.27;;
5587;SDS011;2816;49.778;9.986;2023-03-04T13:25:38;15.20;;;5.60;;
5587;SDS011;2816;49.778;9.986;2023-03-04T13:33:51;10.93;;;5.20;;
5587;SDS011;2816;49.778;9.986;2023-03-04T13:36:31;14.63;;;5.87;;
5587;SDS011;2816;49.778;9.986;2023-03-04T13:39:00;15.33;;;6.27;;
5587;SDS011;2816;49.778;9.986;2023-03-04T13:41:30;17.37;;;6.07;;
5587;SDS011;2816;49.778;9.986;2023-03-04T13:47:06;19.23;;;7.03;;
5587;SDS011;2816;49.778;9.986;2023-03-04T13:49:36;12.53;;;6.07;;
5587;SDS011;2816;49.778;9.986;2023-03-04T13:57:59;13.63;;;7.20;;
5587;SDS011;2816;49.778;9.986;2023-03-04T14:00:26;13.40;;;6.97;;
5587;SDS011;2816;49.778;9.986;2023-03-04T14:02:54;18.63;;;6.80;;
5587;SDS011;2816;49.778;9.986;2023-03-04T14:05:22;10.23;;;5.70;;
5587;SDS011;2816;49.778;9.986;2023-03-04T14:07:49;18.53;;;6.40;;
5587;SDS011;2816;49.778;9.986;2023-03-04T14:10:20;18.73;;;6.73;;
5587;SDS011;2816;49.778;9.986;2023-03-04T14:12:49;19.93;;;6.30;;
5587;SDS011;2816;49.778;9.986;2023-03-04T14:15:20;14.60;;;6.20;;
5587;SDS011;2816;49.778;9.986;2023-03-04T14:17:50;13.60;;;6.60;;
5587;SDS011;2816;49.778;9.986;2023-03-04T14:20:26;18.03;;;6.20;;
5587;SDS011;2816;49.778;9.986;2023-03-04T14:22:55;13.27;;;5.50;;
5587;SDS011;2816;49.778;9.986;2023-03-04T14:25:23;14.90;;;6.33;;
5587;SDS011;2816;49.778;9.986;2023-03-04T14:28:00;17.23;;;6.23;;
5587;SDS011;2816;49.778;9.986;2023-03-04T14:30:28;12.80;;;6.33;;
5587;SDS011;2816;49.778;9.986;2023-03-04T14:32:56;10.07;;;5.57;;
5587;SDS011;2816;49.778;9.986;2023-03-04T14:35:27;12.17;;;6.40;;
5587;SDS011;2816;49.778;9.986;2023-03-04T14:37:57;18.13;;;6.13;;
5587;SDS011;2816;49.778;9.986;2023-03-04T14:40:27;14.87;;;6.17;;
5587;SDS011;2816;49.778;9.986;2023-03-04T14:42:57;11.47;;;5.40;;
5587;SDS011;2816;49.778;9.986;2023-03-04T14:45:26;9.60;;;4.70;;
5587;SDS011;2816;49.778;9.986;2023-03-04T14:47:55;12.97;;;6.10;;
5587;SDS011;2816;49.778;9.986;2023-03-04T14:50:28;13.10;;;5.57;;
5587;SDS011;2816;49.778;9.986;2023-03-04T14:53:12;7.10;;;4.00;;
5587;SDS011;2816;49.778;9.986;2023-03-04T14:55:53;14.53;;;6.03;;
5587;SDS011;2816;49.778;9.986;2023-03-04T14:58:22;10.23;;;5.70;;
5587;SDS011;2816;49.778;9.986;2023-03-04T15:01:01;9.50;;;4.33;;
5587;SDS011;2816;49.778;9.986;2023-03-04T15:03:33;11.77;;;4.73;;
5587;SDS011;2816;49.778;9.986;2023-03-04T15:06:11;13.60;;;5.87;;
5587;SDS011;2816;49.778;9.986;2023-03-04T15:08:43;7.70;;;4.43;;
5587;SDS011;2816;49.778;9.986;2023-03-04T15:11:13;17.80;;;7.27;;
5587;SDS011;2816;49.778;9.986;2023-03-04T15:13:48;13.77;;;6.40;;
5587;SDS011;2816;49.778;9.986;2023-03-04T15:16:16;12.60;;;6.83;;
5587;SDS011;2816;49.778;9.986;2023-03-04T15:18:55;17.93;;;6.33;;
5587;SDS011;2816;49.778;9.986;2023-03-04T15:21:28;12.70;;;7.20;;
5587;SDS011;2816;49.778;9.986;2023-03-04T15:23:57;18.00;;;7.23;;
5587;SDS011;2816;49.778;9.986;2023-03-04T15:26:24;18.33;;;8.23;;
5587;SDS011;2816;49.778;9.986;2023-03-04T15:28:51;14.53;;;6.87;;
5587;SDS011;2816;49.778;9.986;2023-03-04T15:31:19;15.77;;;6.37;;
5587;SDS011;2816;49.778;9.986;2023-03-04T15:33:47;13.60;;;6.47;;
5587;SDS011;2816;49.778;9.986;2023-03-04T15:36:16;17.90;;;8.53;;
5587;SDS011;2816;49.778;9.986;2023-03-04T15:38:46;16.50;;;7.73;;